Time,TemperatureF,DewpointF,PressureIn,WindDirection,WindDirectionDegrees,WindSpeedMPH,WindSpeedGustMPH,Humidity,HourlyPrecipIn,Conditions,Clouds,dailyrainin,SoftwareType,DateUTC
2013-05-07 00:01:00,51.0,50.0,30.05,East,83,2.0,5.0,96,0.00,,,0.20,,2013-05-07 07:01:00,
2013-05-07 00:11:00,51.0,50.0,30.05,East,83,2.0,5.0,96,0.00,,,0.20,,2013-05-07 07:11:00,
2013-05-07 00:22:00,51.0,50.0,30.05,ENE,72,3.0,5.0,95,0.00,,,0.20,,2013-05-07 07:22:00,
2013-05-07 00:31:00,51.0,49.0,30.06,ENE,59,2.0,4.0,93,0.00,,,0.20,,2013-05-07 07:31:00,
2013-05-07 00:42:00,51.0,49.0,30.06,ENE,59,2.0,4.0,93,0.00,,,0.20,,2013-05-07 07:42:00,
2013-05-07 00:52:00,51.0,48.0,30.05,ENE,57,0.0,4.0,91,0.00,,,0.20,,2013-05-07 07:52:00,
2013-05-07 01:02:00,51.0,48.0,30.05,SE,138,0.0,0.0,91,0.00,,,0.20,,2013-05-07 08:02:00,
2013-05-07 01:11:00,51.0,48.0,30.05,SE,138,0.0,0.0,91,0.00,,,0.20,,2013-05-07 08:11:00,
2013-05-07 01:21:00,51.0,48.0,30.05,SE,138,0.0,0.0,91,0.00,,,0.20,,2013-05-07 08:21:00,
2013-05-07 01:31:00,51.0,48.0,30.05,SE,138,0.0,0.0,91,0.00,,,0.20,,2013-05-07 08:31:00,
2013-05-07 01:41:00,51.0,48.0,30.05,SE,138,0.0,0.0,91,0.00,,,0.20,,2013-05-07 08:41:00,
2013-05-07 02:52:00,51.0,48.0,30.03,SSW,213,0.0,0.0,91,0.00,,,0.15,,2013-05-07 09:52:00,
2013-05-07 03:02:00,51.0,48.0,30.03,SSW,213,0.0,0.0,90,0.00,,,0.15,,2013-05-07 10:02:00,
2013-05-07 03:12:00,51.0,48.0,30.03,SSW,213,0.0,0.0,90,0.00,,,0.15,,2013-05-07 10:12:00,
2013-05-07 03:22:00,51.0,48.0,30.03,SSW,213,0.0,0.0,89,0.00,,,0.06,,2013-05-07 10:22:00,
2013-05-07 03:32:00,51.0,48.0,30.03,West,274,1.0,4.0,88,0.00,,,0.06,,2013-05-07 10:32:00,
2013-05-07 03:42:00,51.0,48.0,30.03,West,274,0.0,3.0,88,0.00,,,0.06,,2013-05-07 10:42:00,
2013-05-07 03:52:00,51.0,48.0,30.03,West,274,0.0,3.0,88,0.00,,,0.06,,2013-05-07 10:52:00,
2013-05-07 04:02:00,51.0,48.0,30.03,West,274,3.0,4.0,89,0.00,,,0.06,,2013-05-07 11:02:00,
2013-05-07 04:11:00,51.0,48.0,30.03,West,274,3.0,4.0,89,0.00,,,0.06,,2013-05-07 11:11:00,
2013-05-07 04:21:00,51.0,48.0,30.03,West,275,3.0,4.0,89,0.00,,,0.03,,2013-05-07 11:21:00,
2013-05-07 04:32:00,51.0,48.0,30.02,West,275,2.0,4.0,89,0.00,,,0.03,,2013-05-07 11:32:00,
2013-05-07 04:42:00,51.0,48.0,30.02,West,275,2.0,4.0,89,0.00,,,0.03,,2013-05-07 11:42:00,
2013-05-07 04:52:00,51.0,48.0,30.03,West,275,3.0,5.0,90,0.00,,,0.03,,2013-05-07 11:52:00,
2013-05-07 05:01:00,51.0,48.0,30.03,West,275,1.0,4.0,91,0.00,,,0.03,,2013-05-07 12:01:00,
2013-05-07 05:11:00,51.0,48.0,30.03,West,275,1.0,4.0,91,0.00,,,0.03,,2013-05-07 12:11:00,
2013-05-07 05:21:00,52.0,48.0,30.03,West,275,0.0,3.0,85,0.00,,,0.03,,2013-05-07 12:21:00,
2013-05-07 05:32:00,51.0,47.0,30.02,West,275,0.0,0.0,85,0.00,,,0.03,,2013-05-07 12:32:00,
2013-05-07 05:41:00,51.0,47.0,30.02,West,275,0.0,0.0,85,0.00,,,0.03,,2013-05-07 12:41:00,
2013-05-07 05:52:00,52.0,47.0,30.02,West,275,0.0,0.0,82,0.00,,,0.03,,2013-05-07 12:52:00,
2013-05-07 06:01:00,52.0,46.0,30.03,West,275,1.0,4.0,81,0.00,,,0.03,,2013-05-07 13:01:00,
2013-05-07 06:11:00,52.0,46.0,30.03,West,275,1.0,4.0,81,0.00,,,0.03,,2013-05-07 13:11:00,
2013-05-07 06:21:00,52.0,47.0,30.03,West,275,0.0,0.0,82,0.00,,,0.03,,2013-05-07 13:21:00,
2013-05-07 06:32:00,51.0,46.0,30.04,West,275,0.0,0.0,84,0.00,,,0.03,,2013-05-07 13:32:00,
2013-05-07 06:42:00,51.0,46.0,30.04,West,275,0.0,0.0,84,0.00,,,0.03,,2013-05-07 13:42:00,
2013-05-07 06:52:00,51.0,46.0,30.04,West,275,0.0,0.0,84,0.00,,,0.03,,2013-05-07 13:52:00,
2013-05-07 07:01:00,51.0,46.0,30.04,West,275,0.0,0.0,83,0.00,,,0.03,,2013-05-07 14:01:00,
2013-05-07 07:11:00,51.0,46.0,30.04,West,275,0.0,0.0,83,0.00,,,0.03,,2013-05-07 14:11:00,
2013-05-07 07:21:00,51.0,46.0,30.05,West,275,0.0,0.0,84,0.00,,,0.02,,2013-05-07 14:21:00,
2013-05-07 07:31:00,52.0,47.0,30.05,West,275,0.0,0.0,84,0.00,,,0.02,,2013-05-07 14:31:00,
2013-05-07 07:42:00,52.0,47.0,30.05,West,275,0.0,0.0,84,0.00,,,0.02,,2013-05-07 14:42:00,
2013-05-07 07:52:00,52.0,48.0,30.05,East,97,1.0,5.0,85,0.00,,,0.02,,2013-05-07 14:52:00,
2013-05-07 08:01:00,54.0,50.0,30.05,ENE,77,2.0,8.0,85,0.00,,,0.02,,2013-05-07 15:01:00,
2013-05-07 08:11:00,54.0,50.0,30.05,ENE,77,2.0,8.0,85,0.00,,,0.02,,2013-05-07 15:11:00,
2013-05-07 08:21:00,54.0,48.0,30.05,ENE,67,1.0,7.0,79,0.00,,,0.02,,2013-05-07 15:21:00,
2013-05-07 08:33:00,56.0,47.0,30.05,ESE,113,4.0,7.0,72,0.00,,,0.02,,2013-05-07 15:33:00,
2013-05-07 08:42:00,56.0,47.0,30.05,ESE,113,4.0,7.0,72,0.00,,,0.02,,2013-05-07 15:42:00,
2013-05-07 08:53:00,56.0,47.0,30.05,ESE,113,4.0,7.0,72,0.00,,,0.02,,2013-05-07 15:53:00,
2013-05-07 09:03:00,56.0,50.0,30.06,South,184,2.0,7.0,81,0.00,,,0.02,,2013-05-07 16:03:00,
2013-05-07 09:12:00,56.0,50.0,30.06,South,184,2.0,7.0,81,0.00,,,0.02,,2013-05-07 16:12:00,
2013-05-07 09:22:00,53.0,49.0,30.06,SSW,196,3.0,9.0,87,0.00,,,0.02,,2013-05-07 16:22:00,
2013-05-07 09:32:00,54.0,50.0,30.07,SSW,195,3.0,7.0,87,0.00,,,0.02,,2013-05-07 16:32:00,
2013-05-07 09:41:00,54.0,50.0,30.07,SSW,195,3.0,7.0,87,0.00,,,0.02,,2013-05-07 16:41:00,
2013-05-07 09:52:00,54.0,50.0,30.07,SSW,195,3.0,7.0,87,0.00,,,0.02,,2013-05-07 16:52:00,
2013-05-07 10:01:00,53.0,50.0,30.08,South,189,0.0,4.0,88,0.00,,,0.02,,2013-05-07 17:01:00,
2013-05-07 10:12:00,53.0,50.0,30.08,South,189,0.0,4.0,88,0.00,,,0.02,,2013-05-07 17:12:00,
2013-05-07 10:21:00,54.0,49.0,30.08,South,171,3.0,8.0,83,0.00,,,0.00,,2013-05-07 17:21:00,
2013-05-07 10:31:00,55.0,50.0,30.08,SE,132,1.0,4.0,84,0.00,,,0.00,,2013-05-07 17:31:00,
2013-05-07 10:41:00,55.0,50.0,30.08,SE,132,1.0,4.0,84,0.00,,,0.00,,2013-05-07 17:41:00,
2013-05-07 10:52:00,55.0,50.0,30.08,WSW,242,3.0,6.0,83,0.00,,,0.00,,2013-05-07 17:52:00,
2013-05-07 11:01:00,55.0,49.0,30.09,WSW,252,4.0,6.0,79,0.00,,,0.00,,2013-05-07 18:01:00,
2013-05-07 11:11:00,55.0,49.0,30.09,WSW,252,4.0,6.0,79,0.00,,,0.00,,2013-05-07 18:11:00,
2013-05-07 11:21:00,55.0,47.0,30.08,WNW,299,3.0,8.0,73,0.00,,,0.00,,2013-05-07 18:21:00,
2013-05-07 11:31:00,56.0,48.0,30.08,SSW,211,5.0,9.0,75,0.00,,,0.00,,2013-05-07 18:31:00,
2013-05-07 11:41:00,56.0,48.0,30.08,SSW,211,5.0,9.0,75,0.00,,,0.00,,2013-05-07 18:41:00,
2013-05-07 11:52:00,55.0,49.0,30.08,SSW,208,7.0,13.0,79,0.00,,,0.00,,2013-05-07 18:52:00,
2013-05-07 12:01:00,57.0,47.0,30.08,WSW,238,7.0,12.0,69,0.00,,,0.00,,2013-05-07 19:01:00,
2013-05-07 12:11:00,57.0,47.0,30.08,WSW,238,7.0,12.0,69,0.00,,,0.00,,2013-05-07 19:11:00,
2013-05-07 12:21:00,57.0,47.0,30.07,West,263,9.0,15.0,68,0.00,,,0.00,,2013-05-07 19:21:00,
2013-05-07 12:31:00,59.0,48.0,30.07,NNW,348,2.0,14.0,68,0.00,,,0.00,,2013-05-07 19:31:00,
2013-05-07 12:41:00,59.0,48.0,30.07,NNW,348,2.0,14.0,68,0.00,,,0.00,,2013-05-07 19:41:00,
2013-05-07 12:52:00,57.0,47.0,30.07,West,273,6.0,12.0,69,0.00,,,0.00,,2013-05-07 19:52:00,
2013-05-07 13:01:00,57.0,49.0,30.06,SW,214,5.0,11.0,75,0.00,,,0.00,,2013-05-07 20:01:00,
2013-05-07 13:11:00,57.0,49.0,30.06,SW,214,5.0,11.0,75,0.00,,,0.00,,2013-05-07 20:11:00,
2013-05-07 13:21:00,58.0,49.0,30.06,WSW,257,5.0,12.0,71,0.00,,,0.00,,2013-05-07 20:21:00,
2013-05-07 13:32:00,57.0,50.0,30.06,WSW,239,8.0,18.0,77,0.00,,,0.00,,2013-05-07 20:32:00,
2013-05-07 13:41:00,57.0,50.0,30.06,WSW,239,8.0,18.0,77,0.00,,,0.00,,2013-05-07 20:41:00,
2013-05-07 13:52:00,59.0,51.0,30.07,West,265,7.0,19.0,75,0.00,,,0.00,,2013-05-07 20:52:00,
2013-05-07 14:01:00,57.0,49.0,30.07,WNW,298,8.0,19.0,74,0.00,,,0.00,,2013-05-07 21:01:00,
2013-05-07 14:11:00,57.0,49.0,30.07,WNW,298,8.0,19.0,74,0.00,,,0.00,,2013-05-07 21:11:00,
2013-05-07 14:21:00,57.0,47.0,30.07,NNW,341,9.0,16.0,70,0.00,,,0.00,,2013-05-07 21:21:00,
2013-05-07 14:32:00,57.0,49.0,30.07,West,259,9.0,15.0,74,0.00,,,0.00,,2013-05-07 21:32:00,
2013-05-07 14:42:00,57.0,49.0,30.07,West,259,9.0,15.0,74,0.00,,,0.00,,2013-05-07 21:42:00,
2013-05-07 14:53:00,57.0,49.0,30.07,West,272,9.0,18.0,74,0.00,,,0.00,,2013-05-07 21:53:00,
2013-05-07 15:02:00,57.0,47.0,30.07,WNW,292,6.0,18.0,68,0.00,,,0.00,,2013-05-07 22:02:00,
2013-05-07 15:13:00,57.0,47.0,30.07,WNW,292,6.0,18.0,68,0.00,,,0.00,,2013-05-07 22:13:00,
2013-05-07 15:22:00,57.0,47.0,30.06,WNW,299,11.0,19.0,70,0.00,,,0.00,,2013-05-07 22:22:00,
2013-05-07 15:32:00,59.0,47.0,30.06,NW,309,11.0,17.0,64,0.00,,,0.00,,2013-05-07 22:32:00,
2013-05-07 15:42:00,59.0,47.0,30.06,NW,309,11.0,17.0,64,0.00,,,0.00,,2013-05-07 22:42:00,
2013-05-07 15:52:00,60.0,47.0,30.05,WNW,297,8.0,18.0,62,0.00,,,0.00,,2013-05-07 22:52:00,
2013-05-07 16:01:00,59.0,47.0,30.05,WNW,286,10.0,16.0,65,0.00,,,0.00,,2013-05-07 23:01:00,
2013-05-07 16:11:00,59.0,47.0,30.05,WNW,286,10.0,16.0,65,0.00,,,0.00,,2013-05-07 23:11:00,
2013-05-07 16:21:00,60.0,46.0,30.05,West,262,8.0,14.0,60,0.00,,,0.00,,2013-05-07 23:21:00,
2013-05-07 16:32:00,60.0,46.0,30.05,NW,315,5.0,17.0,60,0.00,,,0.00,,2013-05-07 23:32:00,
2013-05-07 16:41:00,60.0,46.0,30.05,NW,315,5.0,17.0,60,0.00,,,0.00,,2013-05-07 23:41:00,
2013-05-07 16:52:00,58.0,49.0,30.05,WSW,242,9.0,18.0,71,0.00,,,0.00,,2013-05-07 23:52:00,
2013-05-07 17:01:00,58.0,49.0,30.05,West,276,7.0,18.0,71,0.00,,,0.00,,2013-05-08 00:01:00,
2013-05-07 17:11:00,58.0,49.0,30.05,West,276,7.0,18.0,71,0.00,,,0.00,,2013-05-08 00:11:00,
2013-05-07 17:21:00,58.0,51.0,30.05,West,271,8.0,17.0,77,0.00,,,0.00,,2013-05-08 00:21:00,
2013-05-07 17:32:00,58.0,51.0,30.05,West,271,8.0,17.0,77,0.00,,,0.00,,2013-05-08 00:32:00,
2013-05-07 17:41:00,58.0,51.0,30.05,West,271,8.0,17.0,77,0.00,,,0.00,,2013-05-08 00:41:00,
2013-05-07 17:52:00,57.0,51.0,30.05,WNW,290,10.0,15.0,80,0.00,,,0.00,,2013-05-08 00:52:00,
2013-05-07 18:01:00,56.0,51.0,30.05,WNW,301,5.0,15.0,83,0.00,,,0.00,,2013-05-08 01:01:00,
2013-05-07 18:11:00,56.0,51.0,30.05,WNW,301,5.0,15.0,83,0.00,,,0.00,,2013-05-08 01:11:00,
2013-05-07 18:21:00,56.0,52.0,30.05,West,266,8.0,15.0,85,0.00,,,0.00,,2013-05-08 01:21:00,
2013-05-07 18:31:00,55.0,50.0,30.05,WNW,287,10.0,17.0,84,0.00,,,0.00,,2013-05-08 01:31:00,
2013-05-07 18:42:00,55.0,50.0,30.05,WNW,287,10.0,17.0,84,0.00,,,0.00,,2013-05-08 01:42:00,
2013-05-07 18:52:00,56.0,51.0,30.05,WNW,294,4.0,13.0,82,0.00,,,0.00,,2013-05-08 01:52:00,
2013-05-07 19:01:00,55.0,50.0,30.05,NW,319,5.0,13.0,84,0.00,,,0.00,,2013-05-08 02:01:00,
2013-05-07 19:11:00,55.0,50.0,30.05,NW,319,5.0,13.0,84,0.00,,,0.00,,2013-05-08 02:11:00,
2013-05-07 19:21:00,55.0,48.0,30.05,WNW,293,6.0,11.0,78,0.00,,,0.00,,2013-05-08 02:21:00,
2013-05-07 19:31:00,54.0,50.0,30.05,WNW,296,7.0,11.0,86,0.00,,,0.00,,2013-05-08 02:31:00,
2013-05-07 19:42:00,54.0,50.0,30.05,WNW,296,7.0,11.0,86,0.00,,,0.00,,2013-05-08 02:42:00,
2013-05-07 19:52:00,53.0,49.0,30.06,WNW,292,7.0,11.0,85,0.00,,,0.00,,2013-05-08 02:52:00,
2013-05-07 20:01:00,53.0,50.0,30.06,WNW,286,7.0,10.0,88,0.00,,,0.00,,2013-05-08 03:01:00,
2013-05-07 20:11:00,53.0,50.0,30.06,WNW,286,7.0,10.0,88,0.00,,,0.00,,2013-05-08 03:11:00,
2013-05-07 20:21:00,53.0,50.0,30.06,West,273,10.0,12.0,91,0.00,,,0.00,,2013-05-08 03:21:00,
2013-05-07 20:32:00,52.0,50.0,30.06,WNW,294,10.0,15.0,92,0.00,,,0.00,,2013-05-08 03:32:00,
2013-05-07 20:43:00,52.0,50.0,30.06,WNW,294,10.0,15.0,92,0.00,,,0.00,,2013-05-08 03:43:00,
2013-05-07 20:52:00,52.0,49.0,30.06,West,277,11.0,17.0,91,0.00,,,0.00,,2013-05-08 03:52:00,
2013-05-07 21:02:00,52.0,48.0,30.06,WNW,296,13.0,19.0,87,0.00,,,0.00,,2013-05-08 04:02:00,
2013-05-07 21:12:00,52.0,48.0,30.06,WNW,296,13.0,19.0,87,0.00,,,0.00,,2013-05-08 04:12:00,
2013-05-07 21:22:00,53.0,46.0,30.06,NW,308,12.0,20.0,76,0.00,,,0.00,,2013-05-08 04:22:00,
2013-05-07 21:32:00,53.0,46.0,30.07,West,275,12.0,19.0,78,0.00,,,0.00,,2013-05-08 04:32:00,
2013-05-07 21:42:00,53.0,46.0,30.07,West,275,12.0,19.0,78,0.00,,,0.00,,2013-05-08 04:42:00,
2013-05-07 21:53:00,53.0,45.0,30.07,WNW,291,13.0,18.0,73,0.00,,,0.00,,2013-05-08 04:53:00,
2013-05-07 22:02:00,53.0,43.0,30.08,West,266,14.0,21.0,69,0.00,,,0.00,,2013-05-08 05:02:00,
2013-05-07 22:12:00,53.0,43.0,30.08,West,266,14.0,21.0,69,0.00,,,0.00,,2013-05-08 05:12:00,
2013-05-07 22:22:00,54.0,43.0,30.08,West,273,15.0,22.0,66,0.00,,,0.00,,2013-05-08 05:22:00,
2013-05-07 22:32:00,54.0,43.0,30.09,WNW,297,11.0,20.0,65,0.00,,,0.00,,2013-05-08 05:32:00,
2013-05-07 22:42:00,54.0,43.0,30.09,WNW,297,11.0,20.0,65,0.00,,,0.00,,2013-05-08 05:42:00,
2013-05-07 22:52:00,54.0,43.0,30.09,West,281,14.0,21.0,65,0.00,,,0.00,,2013-05-08 05:52:00,
2013-05-07 23:01:00,53.0,44.0,30.09,WNW,283,13.0,18.0,72,0.00,,,0.00,,2013-05-08 06:01:00,
2013-05-07 23:11:00,53.0,44.0,30.09,WNW,283,13.0,18.0,72,0.00,,,0.00,,2013-05-08 06:11:00,
2013-05-07 23:21:00,53.0,46.0,30.09,WNW,288,10.0,15.0,76,0.00,,,0.00,,2013-05-08 06:21:00,
2013-05-07 23:31:00,53.0,46.0,30.09,West,277,9.0,15.0,77,0.00,,,0.00,,2013-05-08 06:31:00,
2013-05-07 23:41:00,53.0,46.0,30.09,West,277,9.0,15.0,77,0.00,,,0.00,,2013-05-08 06:41:00,
2013-05-07 23:52:00,52.0,46.0,30.10,West,280,8.0,11.0,81,0.00,,,0.00,,2013-05-08 06:52:00,